createdAt,value
2022-09-13T00:02:48.638Z,5.60
2022-09-13T00:05:16.353Z,6.10
2022-09-13T00:07:44.005Z,4.37
2022-09-13T00:10:12.253Z,4.10
2022-09-13T00:12:41.336Z,3.23
2022-09-13T00:15:09.782Z,4.23
2022-09-13T00:17:37.453Z,4.10
2022-09-13T00:20:05.546Z,4.87
2022-09-13T00:22:33.483Z,4.70
2022-09-13T00:25:01.168Z,3.63
2022-09-13T00:27:28.877Z,5.07
2022-09-13T00:29:58.353Z,3.70
2022-09-13T00:32:26.317Z,5.80
2022-09-13T00:34:54.660Z,3.77
2022-09-13T00:37:44.408Z,3.97
2022-09-13T00:40:12.967Z,3.97
2022-09-13T00:42:40.885Z,4.93
2022-09-13T00:45:18.128Z,4.50
2022-09-13T00:47:50.959Z,4.03
2022-09-13T00:50:22.266Z,4.03
2022-09-13T00:52:56.333Z,3.47
2022-09-13T00:55:30.473Z,3.50
2022-09-13T00:58:07.296Z,5.40
2022-09-13T01:00:37.574Z,4.63
2022-09-13T01:03:09.370Z,4.00
2022-09-13T01:05:43.395Z,3.80
2022-09-13T01:08:16.174Z,3.40
2022-09-13T01:10:44.700Z,6.73
2022-09-13T01:13:18.898Z,4.50
2022-09-13T01:15:48.397Z,4.10
2022-09-13T01:18:16.917Z,3.10
2022-09-13T01:25:07.924Z,4.63
2022-09-13T01:27:59.346Z,5.70
2022-09-13T01:30:36.400Z,3.93
2022-09-13T01:33:30.533Z,3.73
2022-09-13T01:36:16.373Z,3.60
2022-09-13T01:38:57.479Z,3.40
2022-09-13T01:41:48.981Z,3.37
2022-09-13T01:44:35.614Z,4.20
2022-09-13T01:47:16.855Z,4.40
2022-09-13T01:53:46.612Z,4.07
2022-09-13T01:56:23.817Z,4.23
2022-09-13T01:58:57.842Z,4.63
2022-09-13T02:01:30.836Z,6.50
2022-09-13T02:04:05.514Z,4.00
2022-09-13T02:06:35.674Z,4.10
2022-09-13T02:09:09.184Z,4.10
2022-09-13T02:11:40.982Z,5.30
2022-09-13T02:14:13.554Z,4.00
2022-09-13T02:16:45.637Z,3.93
2022-09-13T02:19:43.461Z,4.40
2022-09-13T02:22:16.515Z,4.30
2022-09-13T02:24:47.407Z,6.87
2022-09-13T02:31:20.393Z,5.73
2022-09-13T02:33:53.206Z,4.77
2022-09-13T02:36:25.701Z,4.77
2022-09-13T02:38:58.435Z,4.40
2022-09-13T02:41:32.802Z,5.97
2022-09-13T02:44:09.193Z,5.40
2022-09-13T02:46:53.689Z,4.30
2022-09-13T02:49:27.707Z,4.97
2022-09-13T02:52:05.790Z,3.90
2022-09-13T02:54:39.420Z,5.33
2022-09-13T02:57:14.169Z,4.93
2022-09-13T02:59:41.934Z,3.80
2022-09-13T03:02:14.001Z,4.00
2022-09-13T03:04:41.814Z,6.77
2022-09-13T03:07:13.325Z,4.57
2022-09-13T03:09:47.119Z,4.83
2022-09-13T03:12:42.191Z,5.37
2022-09-13T03:15:23.139Z,4.40
2022-09-13T03:18:03.587Z,4.47
2022-09-13T03:20:42.121Z,3.93
2022-09-13T03:23:39.258Z,7.10
2022-09-13T03:26:24.638Z,4.87
2022-09-13T03:29:02.266Z,4.00
2022-09-13T03:31:34.133Z,5.77
2022-09-13T03:34:10.424Z,7.20
2022-09-13T03:36:45.457Z,5.40
2022-09-13T03:39:21.614Z,4.43
2022-09-13T03:41:54.192Z,5.53
2022-09-13T03:44:25.036Z,8.23
2022-09-13T03:46:57.571Z,4.17
2022-09-13T03:49:28.046Z,8.00
2022-09-13T03:51:57.042Z,7.90
2022-09-13T03:54:29.771Z,4.77
2022-09-13T03:57:17.421Z,4.90
2022-09-13T03:59:48.142Z,7.53
2022-09-13T04:02:16.595Z,6.33
2022-09-13T04:04:45.765Z,7.87
2022-09-13T04:07:17.395Z,12.60
2022-09-13T04:09:53.329Z,10.57
2022-09-13T04:12:22.894Z,6.57
2022-09-13T04:14:50.685Z,7.60
2022-09-13T04:17:18.354Z,6.20
2022-09-13T04:19:47.076Z,4.60
2022-09-13T04:22:15.040Z,6.23
2022-09-13T04:24:43.810Z,6.80
2022-09-13T04:27:12.986Z,6.27
2022-09-13T04:29:40.595Z,4.93
2022-09-13T04:32:09.293Z,5.80
2022-09-13T04:34:37.053Z,4.60
2022-09-13T04:37:04.781Z,6.13
2022-09-13T04:39:32.499Z,7.00
2022-09-13T04:42:00.279Z,5.53
2022-09-13T04:44:29.703Z,6.87
2022-09-13T04:46:57.377Z,5.17
2022-09-13T04:49:25.213Z,6.27
2022-09-13T04:51:52.840Z,7.13
2022-09-13T04:54:20.479Z,6.67
2022-09-13T04:56:48.791Z,6.90
2022-09-13T04:59:16.822Z,5.60
2022-09-13T05:01:46.057Z,5.93
2022-09-13T05:04:13.892Z,5.27
2022-09-13T05:06:41.537Z,8.97
2022-09-13T05:09:14.493Z,8.13
2022-09-13T05:11:42.584Z,11.80
2022-09-13T05:14:11.778Z,5.30
2022-09-13T05:16:39.887Z,7.23
2022-09-13T05:19:10.057Z,7.80
2022-09-13T05:21:37.785Z,5.27
2022-09-13T05:24:05.674Z,5.57
2022-09-13T05:26:33.536Z,6.40
2022-09-13T05:29:01.652Z,6.57
2022-09-13T05:31:31.745Z,7.07
2022-09-13T05:34:01.386Z,8.70
2022-09-13T05:36:30.865Z,7.00
2022-09-13T05:39:31.751Z,8.57
2022-09-13T05:41:48.960Z,5.77
2022-09-13T05:44:16.895Z,7.20
2022-09-13T05:46:48.136Z,5.57
2022-09-13T05:49:16.101Z,7.70
2022-09-13T05:51:45.393Z,7.13
2022-09-13T05:54:13.866Z,7.83
2022-09-13T05:56:43.778Z,8.03
2022-09-13T05:59:14.088Z,7.53
2022-09-13T06:01:47.245Z,5.80
2022-09-13T06:04:16.332Z,6.20
2022-09-13T06:06:51.337Z,10.77
2022-09-13T06:09:19.249Z,8.53
2022-09-13T06:15:43.562Z,13.20
2022-09-13T06:18:11.380Z,13.40
2022-09-13T06:20:39.081Z,21.70
2022-09-13T06:23:08.214Z,11.67
2022-09-13T06:26:01.358Z,15.23
2022-09-13T06:28:29.075Z,11.23
2022-09-13T06:31:01.906Z,17.57
2022-09-13T06:33:38.430Z,15.00
2022-09-13T06:36:08.798Z,12.20
2022-09-13T06:38:37.918Z,10.23
2022-09-13T06:41:08.894Z,15.07
2022-09-13T06:43:37.569Z,12.93
2022-09-13T06:46:07.653Z,10.03
2022-09-13T06:48:37.186Z,16.27
2022-09-13T06:51:07.568Z,20.43
2022-09-13T06:53:37.897Z,15.93
2022-09-13T06:56:16.032Z,13.37
2022-09-13T06:58:46.816Z,11.37
2022-09-13T07:01:17.221Z,10.93
2022-09-13T07:03:47.031Z,10.83
2022-09-13T07:06:22.203Z,14.73
2022-09-13T07:19:57.901Z,12.00
2022-09-13T07:22:27.813Z,17.17
2022-09-13T07:24:57.139Z,12.00
2022-09-13T07:27:25.018Z,16.03
2022-09-13T07:29:52.758Z,14.37
2022-09-13T07:32:20.768Z,10.47
2022-09-13T07:34:50.120Z,17.47
2022-09-13T07:37:19.410Z,12.43
2022-09-13T07:39:47.505Z,11.10
2022-09-13T07:42:18.790Z,9.07
2022-09-13T07:44:46.640Z,8.83
2022-09-13T07:47:14.465Z,11.53
2022-09-13T07:49:45.637Z,12.80
2022-09-13T07:52:14.040Z,11.50
2022-09-13T07:54:43.471Z,10.27
2022-09-13T07:57:11.203Z,17.27
2022-09-13T07:59:39.187Z,13.67
2022-09-13T08:02:07.138Z,14.40
2022-09-13T08:04:36.630Z,11.87
2022-09-13T08:07:07.775Z,10.53
2022-09-13T08:09:35.599Z,9.33
2022-09-13T08:12:04.922Z,11.13
2022-09-13T08:14:32.567Z,9.70
2022-09-13T08:17:01.457Z,11.33
2022-09-13T08:19:29.695Z,9.73
2022-09-13T08:21:57.432Z,12.30
2022-09-13T08:24:26.671Z,9.07
2022-09-13T08:26:55.991Z,12.37
2022-09-13T08:29:25.443Z,11.70
2022-09-13T08:31:53.089Z,10.00
2022-09-13T08:34:21.706Z,8.10
2022-09-13T08:36:49.363Z,9.47
2022-09-13T08:39:17.048Z,11.47
2022-09-13T08:42:18.743Z,11.77
2022-09-13T08:44:50.049Z,10.70
2022-09-13T08:47:41.683Z,9.80
2022-09-13T08:50:17.410Z,12.83
2022-09-13T08:52:59.412Z,10.53
2022-09-13T08:55:47.332Z,10.53
2022-09-13T08:58:38.425Z,8.80
2022-09-13T09:01:13.810Z,9.00
2022-09-13T09:03:52.337Z,12.03
2022-09-13T09:06:22.703Z,10.37
2022-09-13T09:08:54.443Z,9.57
2022-09-13T09:11:32.494Z,9.47
2022-09-13T09:14:06.673Z,9.13
2022-09-13T09:16:40.773Z,17.10
2022-09-13T09:19:18.416Z,10.60
2022-09-13T09:21:50.035Z,11.80
2022-09-13T09:24:22.089Z,11.97
2022-09-13T09:26:52.199Z,9.40
2022-09-13T09:29:25.093Z,12.30
2022-09-13T09:32:09.392Z,11.97
2022-09-13T09:34:52.210Z,10.23
2022-09-13T09:37:22.619Z,12.30
2022-09-13T09:39:51.420Z,10.47
2022-09-13T09:42:24.895Z,9.40
2022-09-13T09:44:56.347Z,12.63
2022-09-13T09:47:29.548Z,9.17
2022-09-13T09:50:13.048Z,10.93
2022-09-13T09:52:50.684Z,7.80
2022-09-13T09:55:26.873Z,9.20
2022-09-13T09:57:57.116Z,8.87
2022-09-13T10:00:27.044Z,8.60
2022-09-13T10:02:59.645Z,9.23
2022-09-13T10:05:28.227Z,8.80
2022-09-13T10:08:03.120Z,6.30
2022-09-13T10:10:37.931Z,9.60
2022-09-13T10:13:08.997Z,24.43
2022-09-13T10:15:36.611Z,10.50
2022-09-13T10:21:07.549Z,9.07
2022-09-13T10:23:36.559Z,9.30
2022-09-13T10:26:11.206Z,7.37
2022-09-13T10:28:48.062Z,6.67
2022-09-13T10:31:18.474Z,6.37
2022-09-13T10:33:57.414Z,8.63
2022-09-13T10:36:51.207Z,9.80
2022-09-13T10:39:21.196Z,10.00
2022-09-13T10:41:55.702Z,7.80
2022-09-13T10:44:31.717Z,10.13
2022-09-13T10:47:03.472Z,7.20
2022-09-13T10:49:47.235Z,9.47
2022-09-13T10:52:35.899Z,8.53
2022-09-13T10:55:26.571Z,7.50
2022-09-13T10:57:55.569Z,12.73
2022-09-13T11:00:25.658Z,8.63
2022-09-13T11:03:10.357Z,7.53
2022-09-13T11:05:45.798Z,8.37
2022-09-13T11:08:39.562Z,12.27
2022-09-13T11:11:17.399Z,7.70
2022-09-13T11:14:00.592Z,8.93
2022-09-13T11:16:38.932Z,9.90
2022-09-13T11:19:23.005Z,9.57
2022-09-13T11:22:08.723Z,7.73
2022-09-13T11:24:51.348Z,8.40
2022-09-13T11:27:32.214Z,11.67
2022-09-13T11:30:11.834Z,8.53
2022-09-13T11:32:53.799Z,8.43
2022-09-13T11:35:38.087Z,13.33
2022-09-13T11:38:27.703Z,10.20
2022-09-13T11:41:02.230Z,9.00
2022-09-13T11:43:49.414Z,13.60
2022-09-13T11:46:25.608Z,12.10
2022-09-13T11:49:29.425Z,9.77
2022-09-13T11:52:10.539Z,10.57
2022-09-13T11:54:55.034Z,10.23
2022-09-13T11:57:27.921Z,11.53
2022-09-13T12:00:01.130Z,11.63
2022-09-13T12:02:35.689Z,10.17
2022-09-13T12:05:22.157Z,11.03
2022-09-13T12:07:54.733Z,11.33
2022-09-13T12:10:28.728Z,9.57
2022-09-13T12:13:01.515Z,13.67
2022-09-13T12:15:36.809Z,10.07
2022-09-13T12:18:10.205Z,9.17
2022-09-13T12:20:42.113Z,12.37
2022-09-13T12:23:17.042Z,10.20
2022-09-13T12:25:56.089Z,10.27
2022-09-13T12:28:28.371Z,13.40
2022-09-13T12:30:59.913Z,8.27
2022-09-13T12:33:28.081Z,8.60
2022-09-13T12:36:12.507Z,8.20
2022-09-13T12:39:16.100Z,12.67
2022-09-13T12:42:01.882Z,7.33
2022-09-13T12:44:54.061Z,10.63
2022-09-13T12:47:48.857Z,9.47
2022-09-13T12:50:42.865Z,10.67
2022-09-13T12:53:26.842Z,11.80
2022-09-13T12:56:11.842Z,9.73
2022-09-13T12:59:05.481Z,9.07
2022-09-13T13:01:34.450Z,12.53
2022-09-13T13:04:05.965Z,9.63
2022-09-13T13:06:37.132Z,13.63
2022-09-13T13:09:08.506Z,9.53
2022-09-13T13:11:46.186Z,12.73
2022-09-13T13:14:47.543Z,9.80
2022-09-13T13:17:38.990Z,11.20
2022-09-13T13:20:48.276Z,13.53
2022-09-13T13:23:19.882Z,9.43
2022-09-13T13:26:00.941Z,12.97
2022-09-13T13:28:52.131Z,10.37
2022-09-13T13:31:42.386Z,10.90
2022-09-13T13:34:39.275Z,10.73
2022-09-13T13:37:29.363Z,11.47
2022-09-13T13:40:29.287Z,11.90
2022-09-13T13:43:33.698Z,9.90
2022-09-13T13:46:29.576Z,11.93
2022-09-13T13:49:52.553Z,11.03
2022-09-13T13:52:41.708Z,12.10
2022-09-13T13:55:33.567Z,11.93
2022-09-13T13:58:03.299Z,11.17
2022-09-13T14:00:32.735Z,11.73
2022-09-13T14:03:11.461Z,9.50
2022-09-13T14:05:44.410Z,8.30
2022-09-13T14:08:33.428Z,12.53
2022-09-13T14:11:11.043Z,13.43
2022-09-13T14:13:50.223Z,7.83
2022-09-13T14:16:36.672Z,10.03
2022-09-13T14:19:24.314Z,8.87
2022-09-13T14:22:14.319Z,14.83
2022-09-13T14:24:46.444Z,8.97
2022-09-13T14:27:21.523Z,9.20
2022-09-13T14:29:52.056Z,8.77
2022-09-13T14:32:23.238Z,7.70
2022-09-13T14:34:59.466Z,9.87
2022-09-13T14:37:30.924Z,6.63
2022-09-13T14:40:02.074Z,7.33
2022-09-13T14:42:40.540Z,9.73
2022-09-13T14:45:18.077Z,6.43
2022-09-13T14:47:53.609Z,8.57
2022-09-13T14:50:26.063Z,9.17
2022-09-13T14:52:57.216Z,10.30
2022-09-13T14:55:31.243Z,11.57
2022-09-13T14:58:04.377Z,10.70
2022-09-13T15:00:38.686Z,9.77
2022-09-13T15:03:19.222Z,10.90
2022-09-13T15:05:54.043Z,8.87
2022-09-13T15:08:40.553Z,10.60
2022-09-13T15:11:16.227Z,9.17
2022-09-13T15:13:44.758Z,8.97
2022-09-13T15:16:31.584Z,10.20
2022-09-13T15:19:32.841Z,9.57
2022-09-13T15:22:15.718Z,9.53
2022-09-13T15:24:49.395Z,8.13
2022-09-13T15:27:25.671Z,8.83
2022-09-13T15:29:55.607Z,12.53
2022-09-13T15:32:25.612Z,12.67
2022-09-13T15:34:53.376Z,9.70
2022-09-13T15:37:31.219Z,8.67
2022-09-13T15:40:20.189Z,9.17
2022-09-13T15:42:50.884Z,11.03
2022-09-13T15:45:20.357Z,7.17
2022-09-13T15:47:48.957Z,9.90
2022-09-13T15:50:27.043Z,7.50
2022-09-13T15:52:55.416Z,6.80
2022-09-13T15:55:23.485Z,7.60
2022-09-13T15:57:53.162Z,8.83
2022-09-13T16:00:23.029Z,7.77
2022-09-13T16:02:51.466Z,8.67
2022-09-13T16:05:20.205Z,8.03
2022-09-13T16:07:47.920Z,8.23
2022-09-13T16:10:18.372Z,7.37
2022-09-13T16:12:46.600Z,6.13
2022-09-13T16:15:17.002Z,9.03
2022-09-13T16:17:44.721Z,6.20
2022-09-13T16:20:14.757Z,7.70
2022-09-13T16:22:42.729Z,5.13
2022-09-13T16:25:12.928Z,5.67
2022-09-13T16:27:50.093Z,7.83
2022-09-13T16:30:22.141Z,6.77
2022-09-13T16:32:50.552Z,5.60
2022-09-13T16:35:18.784Z,7.27
2022-09-13T16:37:51.360Z,6.20
2022-09-13T16:40:19.677Z,5.17
2022-09-13T16:42:47.543Z,10.23
2022-09-13T16:45:15.336Z,7.37
2022-09-13T16:47:44.394Z,6.03
2022-09-13T16:50:12.148Z,5.87
2022-09-13T16:52:41.046Z,6.93
2022-09-13T16:55:09.457Z,7.37
2022-09-13T16:57:37.411Z,8.20
2022-09-13T17:00:09.075Z,6.83
2022-09-13T17:02:37.240Z,6.80
2022-09-13T17:05:08.431Z,9.67
2022-09-13T17:07:36.969Z,5.67
2022-09-13T17:10:06.047Z,7.87
2022-09-13T17:12:34.099Z,7.37
2022-09-13T17:15:01.918Z,5.87
2022-09-13T17:17:33.810Z,6.33
2022-09-13T17:20:03.177Z,7.57
2022-09-13T17:22:32.330Z,8.50
2022-09-13T17:25:01.983Z,9.27
2022-09-13T17:27:29.802Z,10.40
2022-09-13T17:29:57.696Z,9.70
2022-09-13T17:32:27.138Z,6.23
2022-09-13T17:34:55.101Z,6.27
2022-09-13T17:37:22.949Z,10.77
2022-09-13T17:39:52.459Z,7.83
2022-09-13T17:42:23.324Z,13.07
2022-09-13T17:44:54.592Z,12.20
2022-09-13T17:47:22.322Z,9.50
2022-09-13T17:49:50.109Z,10.07
2022-09-13T17:52:17.927Z,12.87
2022-09-13T17:54:46.447Z,9.97
2022-09-13T17:57:15.930Z,10.53
2022-09-13T17:59:43.592Z,6.73
2022-09-13T18:02:11.958Z,8.00
2022-09-13T18:04:45.082Z,8.30
2022-09-13T18:07:16.904Z,8.43
2022-09-13T18:09:45.138Z,10.43
2022-09-13T18:12:13.509Z,9.13
2022-09-13T18:14:42.689Z,7.03
2022-09-13T18:17:13.294Z,7.73
2022-09-13T18:19:46.356Z,5.97
2022-09-13T18:22:15.201Z,11.27
2022-09-13T18:24:42.858Z,6.17
2022-09-13T18:27:10.552Z,6.43
2022-09-13T18:29:38.283Z,5.47
2022-09-13T18:32:07.908Z,6.67
2022-09-13T18:34:35.608Z,8.13
2022-09-13T18:37:03.372Z,6.33
2022-09-13T18:39:31.572Z,6.53
2022-09-13T18:42:01.134Z,6.90
2022-09-13T18:44:31.473Z,8.07
2022-09-13T18:47:00.544Z,5.87
2022-09-13T18:49:29.637Z,5.67
2022-09-13T18:51:57.369Z,5.73
2022-09-13T18:54:27.644Z,6.93
2022-09-13T18:56:55.799Z,14.73
2022-09-13T18:59:24.321Z,25.27
2022-09-13T19:01:52.140Z,10.70
2022-09-13T19:04:21.823Z,8.43
2022-09-13T19:06:52.536Z,12.13
2022-09-13T19:09:22.710Z,9.60
2022-09-13T19:11:52.411Z,9.57
2022-09-13T19:14:21.753Z,7.00
2022-09-13T19:16:49.855Z,7.27
2022-09-13T19:19:18.928Z,8.10
2022-09-13T19:21:47.415Z,7.73
2022-09-13T19:24:19.087Z,9.13
2022-09-13T19:26:48.727Z,8.87
2022-09-13T19:29:18.918Z,8.10
2022-09-13T19:31:49.215Z,6.43
2022-09-13T19:34:18.476Z,5.97
2022-09-13T19:36:46.997Z,7.87
2022-09-13T19:39:16.221Z,7.07
2022-09-13T19:41:44.113Z,6.53
2022-09-13T19:44:14.142Z,6.37
2022-09-13T19:46:42.562Z,6.53
2022-09-13T19:49:14.216Z,5.97
2022-09-13T19:51:45.504Z,8.17
2022-09-13T19:54:19.087Z,9.03
2022-09-13T19:56:46.890Z,8.53
2022-09-13T19:59:16.245Z,8.97
2022-09-13T20:01:45.815Z,6.07
2022-09-13T20:04:15.384Z,9.37
2022-09-13T20:06:45.312Z,7.70
2022-09-13T20:09:15.562Z,9.10
2022-09-13T20:11:45.926Z,7.00
2022-09-13T20:14:14.449Z,8.60
2022-09-13T20:16:43.699Z,6.53
2022-09-13T20:19:39.000Z,7.20
2022-09-13T20:22:03.357Z,8.47
2022-09-13T20:24:31.076Z,8.30
2022-09-13T20:27:00.072Z,8.97
2022-09-13T20:29:27.730Z,6.87
2022-09-13T20:31:55.615Z,6.40
2022-09-13T20:34:23.556Z,7.63
2022-09-13T20:36:51.202Z,7.23
2022-09-13T20:39:19.173Z,9.60
2022-09-13T20:41:52.316Z,7.43
2022-09-13T20:44:21.425Z,12.73
2022-09-13T20:46:49.028Z,4.33
2022-09-13T20:49:16.794Z,5.03
2022-09-13T20:51:46.576Z,3.70
2022-09-13T20:54:14.315Z,5.03
2022-09-13T20:56:42.073Z,4.90
2022-09-13T20:59:11.653Z,7.17
2022-09-13T21:01:40.951Z,6.70
2022-09-13T21:04:08.651Z,5.80
2022-09-13T21:06:39.208Z,4.60
2022-09-13T21:09:06.428Z,7.53
2022-09-13T21:11:36.011Z,4.43
2022-09-13T21:14:05.710Z,4.20
2022-09-13T21:16:35.190Z,4.97
2022-09-13T21:19:05.097Z,5.53
2022-09-13T21:21:34.746Z,4.70
2022-09-13T21:24:13.767Z,5.03
2022-09-13T21:26:53.114Z,4.13
2022-09-13T21:29:20.792Z,4.57
2022-09-13T21:31:48.711Z,7.67
2022-09-13T21:34:19.702Z,9.13
2022-09-13T21:36:47.923Z,5.03
2022-09-13T21:39:16.327Z,6.60
2022-09-13T21:41:44.113Z,6.30
2022-09-13T21:44:12.473Z,6.30
2022-09-13T21:46:41.164Z,4.80
2022-09-13T21:49:11.383Z,5.63
2022-09-13T21:51:42.359Z,6.53
2022-09-13T21:54:14.183Z,10.73
2022-09-13T21:56:44.020Z,11.50
2022-09-13T21:59:15.426Z,6.17
2022-09-13T22:01:46.746Z,11.30
2022-09-13T22:04:17.919Z,9.80
2022-09-13T22:06:51.430Z,8.73
2022-09-13T22:09:19.986Z,7.20
2022-09-13T22:11:49.436Z,7.23
2022-09-13T22:14:19.790Z,5.20
2022-09-13T22:16:47.693Z,2.87
2022-09-13T22:19:18.092Z,5.97
2022-09-13T22:21:49.170Z,4.40
2022-09-13T22:24:19.054Z,4.47
2022-09-13T22:26:48.433Z,7.60
2022-09-13T22:29:16.909Z,8.53
2022-09-13T22:31:46.535Z,5.60
2022-09-13T22:34:16.391Z,5.17
2022-09-13T22:36:44.236Z,7.47
2022-09-13T22:39:14.992Z,8.87
2022-09-13T22:41:43.151Z,3.87
2022-09-13T22:44:11.929Z,6.70
2022-09-13T22:46:41.357Z,5.47
2022-09-13T22:49:12.136Z,2.90
2022-09-13T22:51:39.727Z,6.40
2022-09-13T22:54:08.855Z,6.47
2022-09-13T22:56:38.586Z,5.33
2022-09-13T22:59:08.563Z,4.23
2022-09-13T23:01:36.806Z,5.83
2022-09-13T23:04:04.921Z,6.90
2022-09-13T23:06:33.415Z,6.73
2022-09-13T23:09:02.654Z,7.53
2022-09-13T23:11:32.457Z,5.10
2022-09-13T23:14:03.945Z,6.47
2022-09-13T23:16:34.102Z,6.23
2022-09-13T23:19:02.228Z,7.17
2022-09-13T23:21:31.478Z,5.10
2022-09-13T23:24:00.124Z,5.33
2022-09-13T23:26:29.197Z,9.33
2022-09-13T23:28:59.783Z,20.17
2022-09-13T23:31:31.675Z,9.40
2022-09-13T23:34:01.631Z,8.27
2022-09-13T23:36:33.177Z,10.33
2022-09-13T23:39:03.005Z,5.27
2022-09-13T23:41:31.826Z,7.07
2022-09-13T23:43:59.786Z,8.17
2022-09-13T23:46:29.054Z,7.50
2022-09-13T23:48:57.065Z,7.23
2022-09-13T23:51:26.855Z,10.77
2022-09-13T23:53:57.389Z,6.00
2022-09-13T23:56:26.590Z,6.83
2022-09-13T23:58:56.303Z,6.90
